sensor_id;sensor_type;location;lat;lon;timestamp;P1;durP1;ratioP1;P2;durP2;ratioP2
69627;SDS011;56850;51.984;5.088;2022-09-09T00:01:21;4.53;;;2.38;;
69627;SDS011;56850;51.984;5.088;2022-09-09T00:04:03;5.13;;;2.20;;
69627;SDS011;56850;51.984;5.088;2022-09-09T00:06:45;3.33;;;2.20;;
69627;SDS011;56850;51.984;5.088;2022-09-09T00:09:18;3.42;;;2.08;;
69627;SDS011;56850;51.984;5.088;2022-09-09T00:11:51;7.22;;;2.13;;
69627;SDS011;56850;51.984;5.088;2022-09-09T00:14:25;3.97;;;2.10;;
69627;SDS011;56850;51.984;5.088;2022-09-09T00:20:02;4.23;;;2.40;;
69627;SDS011;56850;51.984;5.088;2022-09-09T00:28:30;3.75;;;2.05;;
69627;SDS011;56850;51.984;5.088;2022-09-09T00:31:10;5.38;;;2.10;;
69627;SDS011;56850;51.984;5.088;2022-09-09T00:33:40;5.80;;;2.33;;
69627;SDS011;56850;51.984;5.088;2022-09-09T00:36:12;4.78;;;2.70;;
69627;SDS011;56850;51.984;5.088;2022-09-09T00:38:43;4.28;;;2.13;;
69627;SDS011;56850;51.984;5.088;2022-09-09T00:41:19;6.85;;;2.58;;
69627;SDS011;56850;51.984;5.088;2022-09-09T00:44:03;4.97;;;2.40;;
69627;SDS011;56850;51.984;5.088;2022-09-09T00:55:49;4.13;;;2.60;;
69627;SDS011;56850;51.984;5.088;2022-09-09T00:58:25;4.45;;;2.50;;
69627;SDS011;56850;51.984;5.088;2022-09-09T01:00:57;3.50;;;2.37;;
69627;SDS011;56850;51.984;5.088;2022-09-09T01:03:47;5.30;;;2.50;;
69627;SDS011;56850;51.984;5.088;2022-09-09T01:06:23;6.47;;;2.88;;
69627;SDS011;56850;51.984;5.088;2022-09-09T01:12:01;4.50;;;3.10;;
69627;SDS011;56850;51.984;5.088;2022-09-09T01:14:43;4.50;;;2.80;;
69627;SDS011;56850;51.984;5.088;2022-09-09T01:25:18;4.80;;;2.80;;
69627;SDS011;56850;51.984;5.088;2022-09-09T01:27:59;5.07;;;2.90;;
69627;SDS011;56850;51.984;5.088;2022-09-09T01:30:37;4.18;;;2.72;;
69627;SDS011;56850;51.984;5.088;2022-09-09T01:33:10;5.85;;;2.83;;
69627;SDS011;56850;51.984;5.088;2022-09-09T01:38:34;6.82;;;3.30;;
69627;SDS011;56850;51.984;5.088;2022-09-09T01:41:03;7.33;;;3.07;;
69627;SDS011;56850;51.984;5.088;2022-09-09T01:43:41;6.18;;;3.45;;
69627;SDS011;56850;51.984;5.088;2022-09-09T01:46:08;9.32;;;3.30;;
69627;SDS011;56850;51.984;5.088;2022-09-09T01:48:38;7.35;;;4.00;;
69627;SDS011;56850;51.984;5.088;2022-09-09T01:51:08;7.03;;;3.30;;
69627;SDS011;56850;51.984;5.088;2022-09-09T01:53:37;6.83;;;3.93;;
69627;SDS011;56850;51.984;5.088;2022-09-09T01:56:56;5.65;;;4.03;;
69627;SDS011;56850;51.984;5.088;2022-09-09T01:59:21;6.35;;;3.53;;
69627;SDS011;56850;51.984;5.088;2022-09-09T02:02:13;5.97;;;3.40;;
69627;SDS011;56850;51.984;5.088;2022-09-09T02:04:49;4.13;;;3.40;;
69627;SDS011;56850;51.984;5.088;2022-09-09T02:10:10;6.78;;;3.78;;
69627;SDS011;56850;51.984;5.088;2022-09-09T02:12:54;6.22;;;3.55;;
69627;SDS011;56850;51.984;5.088;2022-09-09T02:15:32;8.35;;;3.30;;
69627;SDS011;56850;51.984;5.088;2022-09-09T02:18:06;6.88;;;4.03;;
69627;SDS011;56850;51.984;5.088;2022-09-09T02:20:39;6.77;;;3.70;;
69627;SDS011;56850;51.984;5.088;2022-09-09T02:23:07;5.70;;;3.80;;
69627;SDS011;56850;51.984;5.088;2022-09-09T02:25:36;6.38;;;3.88;;
69627;SDS011;56850;51.984;5.088;2022-09-09T02:28:19;6.00;;;3.20;;
69627;SDS011;56850;51.984;5.088;2022-09-09T02:30:50;7.25;;;3.78;;
69627;SDS011;56850;51.984;5.088;2022-09-09T02:33:27;8.17;;;3.60;;
69627;SDS011;56850;51.984;5.088;2022-09-09T02:35:59;8.90;;;3.65;;
69627;SDS011;56850;51.984;5.088;2022-09-09T02:38:31;5.22;;;3.28;;
69627;SDS011;56850;51.984;5.088;2022-09-09T02:41:07;6.75;;;3.95;;
69627;SDS011;56850;51.984;5.088;2022-09-09T02:43:35;5.65;;;3.88;;
69627;SDS011;56850;51.984;5.088;2022-09-09T02:46:16;6.93;;;3.70;;
69627;SDS011;56850;51.984;5.088;2022-09-09T02:52:18;4.90;;;3.05;;
69627;SDS011;56850;51.984;5.088;2022-09-09T02:54:51;6.32;;;3.17;;
69627;SDS011;56850;51.984;5.088;2022-09-09T02:57:26;6.30;;;3.03;;
69627;SDS011;56850;51.984;5.088;2022-09-09T02:59:57;5.90;;;3.63;;
69627;SDS011;56850;51.984;5.088;2022-09-09T03:02:25;6.68;;;3.42;;
69627;SDS011;56850;51.984;5.088;2022-09-09T03:04:59;6.50;;;3.35;;
69627;SDS011;56850;51.984;5.088;2022-09-09T03:07:26;6.35;;;3.15;;
69627;SDS011;56850;51.984;5.088;2022-09-09T03:09:54;10.90;;;3.50;;
69627;SDS011;56850;51.984;5.088;2022-09-09T03:12:24;8.73;;;3.50;;
69627;SDS011;56850;51.984;5.088;2022-09-09T03:14:51;7.45;;;3.55;;
69627;SDS011;56850;51.984;5.088;2022-09-09T03:17:18;8.73;;;3.50;;
69627;SDS011;56850;51.984;5.088;2022-09-09T03:19:50;6.72;;;3.28;;
69627;SDS011;56850;51.984;5.088;2022-09-09T03:22:18;7.47;;;3.58;;
69627;SDS011;56850;51.984;5.088;2022-09-09T03:24:46;6.97;;;3.50;;
69627;SDS011;56850;51.984;5.088;2022-09-09T03:27:13;5.40;;;3.28;;
69627;SDS011;56850;51.984;5.088;2022-09-09T03:29:40;5.88;;;3.63;;
69627;SDS011;56850;51.984;5.088;2022-09-09T03:32:12;5.78;;;3.10;;
69627;SDS011;56850;51.984;5.088;2022-09-09T03:34:39;6.75;;;3.75;;
69627;SDS011;56850;51.984;5.088;2022-09-09T03:37:09;6.63;;;2.97;;
69627;SDS011;56850;51.984;5.088;2022-09-09T03:39:36;6.00;;;3.35;;
69627;SDS011;56850;51.984;5.088;2022-09-09T03:42:03;7.00;;;3.10;;
69627;SDS011;56850;51.984;5.088;2022-09-09T03:44:32;6.35;;;4.00;;
69627;SDS011;56850;51.984;5.088;2022-09-09T03:46:59;5.28;;;3.80;;
69627;SDS011;56850;51.984;5.088;2022-09-09T03:49:29;8.47;;;4.23;;
69627;SDS011;56850;51.984;5.088;2022-09-09T03:51:56;4.95;;;3.63;;
69627;SDS011;56850;51.984;5.088;2022-09-09T03:54:24;6.95;;;3.95;;
69627;SDS011;56850;51.984;5.088;2022-09-09T03:56:51;7.50;;;3.63;;
69627;SDS011;56850;51.984;5.088;2022-09-09T03:59:20;8.70;;;4.03;;
69627;SDS011;56850;51.984;5.088;2022-09-09T04:01:47;7.03;;;3.97;;
69627;SDS011;56850;51.984;5.088;2022-09-09T04:04:15;8.00;;;4.25;;
69627;SDS011;56850;51.984;5.088;2022-09-09T04:06:42;5.88;;;3.65;;
69627;SDS011;56850;51.984;5.088;2022-09-09T04:09:09;6.78;;;3.95;;
69627;SDS011;56850;51.984;5.088;2022-09-09T04:11:36;7.32;;;3.83;;
69627;SDS011;56850;51.984;5.088;2022-09-09T04:14:03;6.87;;;4.47;;
69627;SDS011;56850;51.984;5.088;2022-09-09T04:16:33;7.20;;;3.70;;
69627;SDS011;56850;51.984;5.088;2022-09-09T04:19:01;8.30;;;3.97;;
69627;SDS011;56850;51.984;5.088;2022-09-09T04:21:30;8.18;;;4.30;;
69627;SDS011;56850;51.984;5.088;2022-09-09T04:23:59;10.52;;;4.78;;
69627;SDS011;56850;51.984;5.088;2022-09-09T04:26:26;8.23;;;4.03;;
69627;SDS011;56850;51.984;5.088;2022-09-09T04:28:53;6.22;;;3.38;;
69627;SDS011;56850;51.984;5.088;2022-09-09T04:31:22;8.50;;;4.35;;
69627;SDS011;56850;51.984;5.088;2022-09-09T04:33:53;7.40;;;4.20;;
69627;SDS011;56850;51.984;5.088;2022-09-09T04:36:20;8.77;;;4.50;;
69627;SDS011;56850;51.984;5.088;2022-09-09T04:38:50;6.90;;;3.67;;
69627;SDS011;56850;51.984;5.088;2022-09-09T04:41:17;6.03;;;3.55;;
69627;SDS011;56850;51.984;5.088;2022-09-09T04:43:47;12.48;;;4.50;;
69627;SDS011;56850;51.984;5.088;2022-09-09T04:46:15;7.15;;;3.63;;
69627;SDS011;56850;51.984;5.088;2022-09-09T04:48:43;7.20;;;4.03;;
69627;SDS011;56850;51.984;5.088;2022-09-09T04:51:12;7.03;;;4.00;;
69627;SDS011;56850;51.984;5.088;2022-09-09T04:53:41;5.90;;;3.63;;
69627;SDS011;56850;51.984;5.088;2022-09-09T04:56:11;5.60;;;3.63;;
69627;SDS011;56850;51.984;5.088;2022-09-09T04:58:48;6.85;;;3.58;;
69627;SDS011;56850;51.984;5.088;2022-09-09T05:01:17;9.35;;;3.85;;
69627;SDS011;56850;51.984;5.088;2022-09-09T05:03:47;6.87;;;3.67;;
69627;SDS011;56850;51.984;5.088;2022-09-09T05:06:20;5.93;;;3.28;;
69627;SDS011;56850;51.984;5.088;2022-09-09T05:08:57;8.73;;;3.70;;
69627;SDS011;56850;51.984;5.088;2022-09-09T05:11:28;6.38;;;3.20;;
69627;SDS011;56850;51.984;5.088;2022-09-09T05:14:01;5.50;;;3.60;;
69627;SDS011;56850;51.984;5.088;2022-09-09T05:16:29;10.87;;;3.70;;
69627;SDS011;56850;51.984;5.088;2022-09-09T05:18:57;9.05;;;3.25;;
69627;SDS011;56850;51.984;5.088;2022-09-09T05:21:31;7.82;;;3.30;;
69627;SDS011;56850;51.984;5.088;2022-09-09T05:23:58;6.97;;;3.53;;
69627;SDS011;56850;51.984;5.088;2022-09-09T05:26:26;7.75;;;3.50;;
69627;SDS011;56850;51.984;5.088;2022-09-09T05:28:56;7.63;;;3.03;;
69627;SDS011;56850;51.984;5.088;2022-09-09T05:31:23;10.77;;;3.10;;
69627;SDS011;56850;51.984;5.088;2022-09-09T05:33:52;11.25;;;3.58;;
69627;SDS011;56850;51.984;5.088;2022-09-09T05:36:20;10.18;;;3.42;;
69627;SDS011;56850;51.984;5.088;2022-09-09T05:38:52;7.95;;;3.33;;
69627;SDS011;56850;51.984;5.088;2022-09-09T05:41:24;13.93;;;4.10;;
69627;SDS011;56850;51.984;5.088;2022-09-09T05:43:53;8.80;;;3.33;;
69627;SDS011;56850;51.984;5.088;2022-09-09T05:46:23;10.88;;;2.83;;
69627;SDS011;56850;51.984;5.088;2022-09-09T05:48:54;8.60;;;3.50;;
69627;SDS011;56850;51.984;5.088;2022-09-09T05:51:28;8.55;;;2.60;;
69627;SDS011;56850;51.984;5.088;2022-09-09T05:54:03;3.90;;;2.73;;
69627;SDS011;56850;51.984;5.088;2022-09-09T05:56:34;8.70;;;3.28;;
69627;SDS011;56850;51.984;5.088;2022-09-09T05:59:01;8.52;;;2.97;;
69627;SDS011;56850;51.984;5.088;2022-09-09T06:01:29;8.48;;;2.78;;
69627;SDS011;56850;51.984;5.088;2022-09-09T06:04:00;5.82;;;3.10;;
69627;SDS011;56850;51.984;5.088;2022-09-09T06:06:32;7.60;;;3.20;;
69627;SDS011;56850;51.984;5.088;2022-09-09T06:09:07;8.10;;;2.90;;
69627;SDS011;56850;51.984;5.088;2022-09-09T06:11:38;8.05;;;3.20;;
69627;SDS011;56850;51.984;5.088;2022-09-09T06:14:06;8.50;;;2.88;;
69627;SDS011;56850;51.984;5.088;2022-09-09T06:16:33;8.48;;;3.30;;
69627;SDS011;56850;51.984;5.088;2022-09-09T06:19:01;9.03;;;3.53;;
69627;SDS011;56850;51.984;5.088;2022-09-09T06:21:30;11.65;;;3.30;;
69627;SDS011;56850;51.984;5.088;2022-09-09T06:24:01;9.13;;;3.35;;
69627;SDS011;56850;51.984;5.088;2022-09-09T06:26:32;8.35;;;3.00;;
69627;SDS011;56850;51.984;5.088;2022-09-09T06:29:04;9.48;;;3.10;;
69627;SDS011;56850;51.984;5.088;2022-09-09T06:31:32;7.13;;;3.10;;
69627;SDS011;56850;51.984;5.088;2022-09-09T06:34:07;11.25;;;2.95;;
69627;SDS011;56850;51.984;5.088;2022-09-09T06:36:38;6.68;;;3.08;;
69627;SDS011;56850;51.984;5.088;2022-09-09T06:39:06;9.82;;;2.92;;
69627;SDS011;56850;51.984;5.088;2022-09-09T06:41:39;8.30;;;3.03;;
69627;SDS011;56850;51.984;5.088;2022-09-09T06:44:13;8.17;;;3.10;;
69627;SDS011;56850;51.984;5.088;2022-09-09T06:46:41;8.27;;;3.15;;
69627;SDS011;56850;51.984;5.088;2022-09-09T06:49:10;9.95;;;3.20;;
69627;SDS011;56850;51.984;5.088;2022-09-09T06:51:37;10.85;;;2.88;;
69627;SDS011;56850;51.984;5.088;2022-09-09T06:54:11;9.20;;;2.78;;
69627;SDS011;56850;51.984;5.088;2022-09-09T06:56:42;8.70;;;3.17;;
69627;SDS011;56850;51.984;5.088;2022-09-09T06:59:16;9.05;;;2.45;;
69627;SDS011;56850;51.984;5.088;2022-09-09T07:01:44;11.63;;;2.83;;
69627;SDS011;56850;51.984;5.088;2022-09-09T07:04:12;11.82;;;2.80;;
69627;SDS011;56850;51.984;5.088;2022-09-09T07:06:43;6.32;;;2.55;;
69627;SDS011;56850;51.984;5.088;2022-09-09T07:09:16;7.70;;;2.73;;
69627;SDS011;56850;51.984;5.088;2022-09-09T07:11:48;9.77;;;2.92;;
69627;SDS011;56850;51.984;5.088;2022-09-09T07:14:18;9.20;;;3.03;;
69627;SDS011;56850;51.984;5.088;2022-09-09T07:16:48;8.65;;;2.40;;
69627;SDS011;56850;51.984;5.088;2022-09-09T07:19:16;15.63;;;3.40;;
69627;SDS011;56850;51.984;5.088;2022-09-09T07:21:45;9.00;;;2.87;;
69627;SDS011;56850;51.984;5.088;2022-09-09T07:24:15;11.80;;;3.33;;
69627;SDS011;56850;51.984;5.088;2022-09-09T07:26:42;12.40;;;3.10;;
69627;SDS011;56850;51.984;5.088;2022-09-09T07:29:11;9.02;;;2.40;;
69627;SDS011;56850;51.984;5.088;2022-09-09T07:31:46;8.13;;;2.88;;
69627;SDS011;56850;51.984;5.088;2022-09-09T07:34:18;7.83;;;2.63;;
69627;SDS011;56850;51.984;5.088;2022-09-09T07:36:45;9.43;;;2.65;;
69627;SDS011;56850;51.984;5.088;2022-09-09T07:39:13;9.77;;;2.85;;
69627;SDS011;56850;51.984;5.088;2022-09-09T07:41:46;8.55;;;1.85;;
69627;SDS011;56850;51.984;5.088;2022-09-09T07:44:18;8.10;;;2.58;;
69627;SDS011;56850;51.984;5.088;2022-09-09T07:46:52;6.07;;;2.50;;
69627;SDS011;56850;51.984;5.088;2022-09-09T07:49:25;7.65;;;2.50;;
69627;SDS011;56850;51.984;5.088;2022-09-09T07:51:59;10.77;;;2.80;;
69627;SDS011;56850;51.984;5.088;2022-09-09T07:54:26;10.77;;;2.47;;
69627;SDS011;56850;51.984;5.088;2022-09-09T07:56:54;10.25;;;2.13;;
69627;SDS011;56850;51.984;5.088;2022-09-09T07:59:24;10.17;;;2.73;;
69627;SDS011;56850;51.984;5.088;2022-09-09T08:01:53;9.02;;;2.80;;
69627;SDS011;56850;51.984;5.088;2022-09-09T08:04:24;12.52;;;2.67;;
69627;SDS011;56850;51.984;5.088;2022-09-09T08:06:54;9.63;;;2.63;;
69627;SDS011;56850;51.984;5.088;2022-09-09T08:09:24;11.65;;;2.30;;
69627;SDS011;56850;51.984;5.088;2022-09-09T08:11:55;7.53;;;2.47;;
69627;SDS011;56850;51.984;5.088;2022-09-09T08:14:23;9.80;;;2.20;;
69627;SDS011;56850;51.984;5.088;2022-09-09T08:16:54;8.40;;;2.47;;
69627;SDS011;56850;51.984;5.088;2022-09-09T08:19:25;10.48;;;2.50;;
69627;SDS011;56850;51.984;5.088;2022-09-09T08:21:56;6.93;;;2.40;;
69627;SDS011;56850;51.984;5.088;2022-09-09T08:24:23;7.63;;;2.30;;
69627;SDS011;56850;51.984;5.088;2022-09-09T08:26:50;7.95;;;2.53;;
69627;SDS011;56850;51.984;5.088;2022-09-09T08:29:21;10.57;;;2.50;;
69627;SDS011;56850;51.984;5.088;2022-09-09T08:31:50;12.98;;;2.45;;
69627;SDS011;56850;51.984;5.088;2022-09-09T08:34:21;7.63;;;2.40;;
69627;SDS011;56850;51.984;5.088;2022-09-09T08:36:50;9.47;;;2.33;;
69627;SDS011;56850;51.984;5.088;2022-09-09T08:39:21;9.00;;;2.88;;
69627;SDS011;56850;51.984;5.088;2022-09-09T08:44:45;8.50;;;2.40;;
69627;SDS011;56850;51.984;5.088;2022-09-09T08:47:30;10.13;;;2.70;;
69627;SDS011;56850;51.984;5.088;2022-09-09T08:50:19;12.60;;;2.63;;
69627;SDS011;56850;51.984;5.088;2022-09-09T08:52:57;8.68;;;2.70;;
69627;SDS011;56850;51.984;5.088;2022-09-09T08:58:18;7.63;;;2.38;;
69627;SDS011;56850;51.984;5.088;2022-09-09T09:00:59;10.80;;;2.45;;
69627;SDS011;56850;51.984;5.088;2022-09-09T09:06:40;7.30;;;2.40;;
69627;SDS011;56850;51.984;5.088;2022-09-09T09:09:35;9.00;;;2.65;;
69627;SDS011;56850;51.984;5.088;2022-09-09T09:12:16;6.97;;;2.00;;
69627;SDS011;56850;51.984;5.088;2022-09-09T09:14:49;8.60;;;2.47;;
69627;SDS011;56850;51.984;5.088;2022-09-09T09:17:21;8.90;;;2.70;;
69627;SDS011;56850;51.984;5.088;2022-09-09T09:19:52;7.63;;;2.35;;
69627;SDS011;56850;51.984;5.088;2022-09-09T09:22:23;8.52;;;2.38;;
69627;SDS011;56850;51.984;5.088;2022-09-09T09:30:35;12.60;;;3.03;;
69627;SDS011;56850;51.984;5.088;2022-09-09T09:35:48;12.80;;;2.80;;
69627;SDS011;56850;51.984;5.088;2022-09-09T09:38:18;9.15;;;2.33;;
69627;SDS011;56850;51.984;5.088;2022-09-09T09:41:08;8.57;;;2.60;;
69627;SDS011;56850;51.984;5.088;2022-09-09T09:43:36;11.20;;;2.63;;
69627;SDS011;56850;51.984;5.088;2022-09-09T09:46:20;8.18;;;2.63;;
69627;SDS011;56850;51.984;5.088;2022-09-09T09:48:56;8.10;;;2.13;;
69627;SDS011;56850;51.984;5.088;2022-09-09T09:51:32;11.70;;;2.45;;
69627;SDS011;56850;51.984;5.088;2022-09-09T09:56:52;7.03;;;2.70;;
69627;SDS011;56850;51.984;5.088;2022-09-09T10:02:13;9.65;;;2.30;;
69627;SDS011;56850;51.984;5.088;2022-09-09T10:05:00;10.98;;;2.75;;
69627;SDS011;56850;51.984;5.088;2022-09-09T10:07:41;9.45;;;3.03;;
69627;SDS011;56850;51.984;5.088;2022-09-09T10:10:25;9.60;;;3.47;;
69627;SDS011;56850;51.984;5.088;2022-09-09T10:13:19;11.70;;;2.60;;
69627;SDS011;56850;51.984;5.088;2022-09-09T10:16:13;7.32;;;2.75;;
69627;SDS011;56850;51.984;5.088;2022-09-09T10:19:00;9.00;;;2.85;;
69627;SDS011;56850;51.984;5.088;2022-09-09T10:21:46;9.70;;;2.83;;
69627;SDS011;56850;51.984;5.088;2022-09-09T10:24:40;12.33;;;2.50;;
69627;SDS011;56850;51.984;5.088;2022-09-09T10:27:29;8.55;;;2.05;;
69627;SDS011;56850;51.984;5.088;2022-09-09T10:33:04;9.82;;;2.47;;
69627;SDS011;56850;51.984;5.088;2022-09-09T10:35:48;6.25;;;2.60;;
69627;SDS011;56850;51.984;5.088;2022-09-09T10:38:38;8.10;;;2.25;;
69627;SDS011;56850;51.984;5.088;2022-09-09T10:46:43;9.77;;;2.15;;
69627;SDS011;56850;51.984;5.088;2022-09-09T10:49:37;7.10;;;2.30;;
69627;SDS011;56850;51.984;5.088;2022-09-09T10:54:56;7.32;;;2.30;;
69627;SDS011;56850;51.984;5.088;2022-09-09T10:57:38;4.95;;;2.30;;
69627;SDS011;56850;51.984;5.088;2022-09-09T11:00:19;7.10;;;2.35;;
69627;SDS011;56850;51.984;5.088;2022-09-09T11:02:56;7.90;;;2.80;;
69627;SDS011;56850;51.984;5.088;2022-09-09T11:10:59;7.50;;;2.20;;
69627;SDS011;56850;51.984;5.088;2022-09-09T11:13:38;6.05;;;1.98;;
69627;SDS011;56850;51.984;5.088;2022-09-09T11:16:29;7.38;;;2.00;;
69627;SDS011;56850;51.984;5.088;2022-09-09T11:36:31;6.25;;;2.13;;
69627;SDS011;56850;51.984;5.088;2022-09-09T11:41:55;7.13;;;2.58;;
69627;SDS011;56850;51.984;5.088;2022-09-09T11:44:37;5.47;;;2.13;;
69627;SDS011;56850;51.984;5.088;2022-09-09T11:47:15;8.13;;;2.40;;
69627;SDS011;56850;51.984;5.088;2022-09-09T11:49:48;7.32;;;2.53;;
69627;SDS011;56850;51.984;5.088;2022-09-09T11:54:54;6.82;;;2.33;;
69627;SDS011;56850;51.984;5.088;2022-09-09T11:57:24;9.05;;;2.72;;
69627;SDS011;56850;51.984;5.088;2022-09-09T12:00:02;7.37;;;2.43;;
69627;SDS011;56850;51.984;5.088;2022-09-09T12:02:37;7.72;;;2.58;;
69627;SDS011;56850;51.984;5.088;2022-09-09T12:05:16;5.47;;;2.10;;
69627;SDS011;56850;51.984;5.088;2022-09-09T12:07:52;7.65;;;2.60;;
69627;SDS011;56850;51.984;5.088;2022-09-09T12:10:25;4.10;;;2.25;;
69627;SDS011;56850;51.984;5.088;2022-09-09T12:15:52;7.22;;;2.50;;
69627;SDS011;56850;51.984;5.088;2022-09-09T12:18:31;6.55;;;2.35;;
69627;SDS011;56850;51.984;5.088;2022-09-09T12:21:21;8.55;;;2.70;;
69627;SDS011;56850;51.984;5.088;2022-09-09T12:37:40;4.97;;;2.30;;
69627;SDS011;56850;51.984;5.088;2022-09-09T12:43:18;6.15;;;2.67;;
69627;SDS011;56850;51.984;5.088;2022-09-09T12:45:47;6.20;;;2.40;;
69627;SDS011;56850;51.984;5.088;2022-09-09T12:48:25;4.05;;;2.28;;
69627;SDS011;56850;51.984;5.088;2022-09-09T12:51:01;7.68;;;2.80;;
69627;SDS011;56850;51.984;5.088;2022-09-09T12:53:33;5.25;;;2.30;;
69627;SDS011;56850;51.984;5.088;2022-09-09T12:56:06;7.50;;;2.38;;
69627;SDS011;56850;51.984;5.088;2022-09-09T12:58:36;5.53;;;2.47;;
69627;SDS011;56850;51.984;5.088;2022-09-09T13:01:05;5.07;;;2.42;;
69627;SDS011;56850;51.984;5.088;2022-09-09T13:03:33;8.65;;;3.20;;
69627;SDS011;56850;51.984;5.088;2022-09-09T13:06:10;11.18;;;2.88;;
69627;SDS011;56850;51.984;5.088;2022-09-09T13:08:42;6.90;;;2.90;;
69627;SDS011;56850;51.984;5.088;2022-09-09T13:11:13;7.28;;;3.17;;
69627;SDS011;56850;51.984;5.088;2022-09-09T13:13:49;8.85;;;2.88;;
69627;SDS011;56850;51.984;5.088;2022-09-09T13:16:20;6.95;;;2.75;;
69627;SDS011;56850;51.984;5.088;2022-09-09T13:19:16;7.35;;;3.13;;
69627;SDS011;56850;51.984;5.088;2022-09-09T13:21:44;5.15;;;2.80;;
69627;SDS011;56850;51.984;5.088;2022-09-09T13:27:02;7.57;;;2.83;;
69627;SDS011;56850;51.984;5.088;2022-09-09T13:29:30;8.18;;;3.30;;
69627;SDS011;56850;51.984;5.088;2022-09-09T13:32:12;5.33;;;3.00;;
69627;SDS011;56850;51.984;5.088;2022-09-09T13:34:56;6.88;;;2.85;;
69627;SDS011;56850;51.984;5.088;2022-09-09T13:37:32;5.35;;;2.95;;
69627;SDS011;56850;51.984;5.088;2022-09-09T13:40:03;7.07;;;2.90;;
69627;SDS011;56850;51.984;5.088;2022-09-09T13:42:33;6.90;;;3.08;;
69627;SDS011;56850;51.984;5.088;2022-09-09T13:45:05;7.63;;;3.27;;
69627;SDS011;56850;51.984;5.088;2022-09-09T13:47:42;10.55;;;3.08;;
69627;SDS011;56850;51.984;5.088;2022-09-09T13:52:47;7.60;;;3.30;;
69627;SDS011;56850;51.984;5.088;2022-09-09T13:55:17;5.05;;;3.15;;
69627;SDS011;56850;51.984;5.088;2022-09-09T13:57:50;9.57;;;3.10;;
69627;SDS011;56850;51.984;5.088;2022-09-09T14:00:28;8.00;;;3.65;;
69627;SDS011;56850;51.984;5.088;2022-09-09T14:02:56;13.93;;;3.65;;
69627;SDS011;56850;51.984;5.088;2022-09-09T14:05:23;7.80;;;2.90;;
69627;SDS011;56850;51.984;5.088;2022-09-09T14:07:51;7.90;;;3.17;;
69627;SDS011;56850;51.984;5.088;2022-09-09T14:10:18;7.67;;;3.27;;
69627;SDS011;56850;51.984;5.088;2022-09-09T14:12:46;6.82;;;3.00;;
69627;SDS011;56850;51.984;5.088;2022-09-09T14:15:13;10.48;;;3.15;;
69627;SDS011;56850;51.984;5.088;2022-09-09T14:17:40;4.85;;;3.15;;
69627;SDS011;56850;51.984;5.088;2022-09-09T14:20:07;5.43;;;3.10;;
69627;SDS011;56850;51.984;5.088;2022-09-09T14:22:36;3.77;;;2.20;;
69627;SDS011;56850;51.984;5.088;2022-09-09T14:25:03;5.22;;;2.53;;
69627;SDS011;56850;51.984;5.088;2022-09-09T14:27:30;4.20;;;1.60;;
69627;SDS011;56850;51.984;5.088;2022-09-09T14:29:57;3.75;;;1.70;;
69627;SDS011;56850;51.984;5.088;2022-09-09T14:32:24;3.95;;;1.83;;
69627;SDS011;56850;51.984;5.088;2022-09-09T14:34:50;3.88;;;1.80;;
69627;SDS011;56850;51.984;5.088;2022-09-09T14:37:18;8.20;;;2.08;;
69627;SDS011;56850;51.984;5.088;2022-09-09T14:39:45;3.60;;;1.70;;
69627;SDS011;56850;51.984;5.088;2022-09-09T14:42:13;2.92;;;1.63;;
69627;SDS011;56850;51.984;5.088;2022-09-09T14:44:40;4.10;;;1.42;;
69627;SDS011;56850;51.984;5.088;2022-09-09T14:47:08;2.83;;;1.50;;
69627;SDS011;56850;51.984;5.088;2022-09-09T14:49:35;4.63;;;1.50;;
69627;SDS011;56850;51.984;5.088;2022-09-09T14:52:05;3.67;;;1.85;;
69627;SDS011;56850;51.984;5.088;2022-09-09T14:54:32;6.40;;;1.90;;
69627;SDS011;56850;51.984;5.088;2022-09-09T14:56:59;4.50;;;2.00;;
69627;SDS011;56850;51.984;5.088;2022-09-09T14:59:26;3.47;;;1.87;;
69627;SDS011;56850;51.984;5.088;2022-09-09T15:01:53;4.78;;;1.88;;
69627;SDS011;56850;51.984;5.088;2022-09-09T15:04:20;3.78;;;1.70;;
69627;SDS011;56850;51.984;5.088;2022-09-09T15:06:47;3.03;;;1.80;;
69627;SDS011;56850;51.984;5.088;2022-09-09T15:09:16;4.28;;;1.70;;
69627;SDS011;56850;51.984;5.088;2022-09-09T15:11:43;4.90;;;1.80;;
69627;SDS011;56850;51.984;5.088;2022-09-09T15:14:10;4.18;;;1.92;;
69627;SDS011;56850;51.984;5.088;2022-09-09T15:16:38;3.67;;;1.83;;
69627;SDS011;56850;51.984;5.088;2022-09-09T15:19:06;6.03;;;1.90;;
69627;SDS011;56850;51.984;5.088;2022-09-09T15:21:34;6.68;;;1.98;;
69627;SDS011;56850;51.984;5.088;2022-09-09T15:24:02;5.23;;;2.03;;
69627;SDS011;56850;51.984;5.088;2022-09-09T15:26:34;3.05;;;1.83;;
69627;SDS011;56850;51.984;5.088;2022-09-09T15:29:04;4.07;;;1.58;;
69627;SDS011;56850;51.984;5.088;2022-09-09T15:31:32;5.43;;;1.90;;
69627;SDS011;56850;51.984;5.088;2022-09-09T15:34:00;4.57;;;2.08;;
69627;SDS011;56850;51.984;5.088;2022-09-09T15:36:29;3.17;;;1.60;;
69627;SDS011;56850;51.984;5.088;2022-09-09T15:39:00;4.30;;;1.60;;
69627;SDS011;56850;51.984;5.088;2022-09-09T15:41:28;3.63;;;1.70;;
69627;SDS011;56850;51.984;5.088;2022-09-09T15:43:59;4.15;;;1.55;;
69627;SDS011;56850;51.984;5.088;2022-09-09T15:46:36;4.00;;;1.70;;
69627;SDS011;56850;51.984;5.088;2022-09-09T15:49:06;4.30;;;1.92;;
69627;SDS011;56850;51.984;5.088;2022-09-09T15:51:39;4.38;;;2.08;;
69627;SDS011;56850;51.984;5.088;2022-09-09T15:54:11;6.05;;;2.38;;
69627;SDS011;56850;51.984;5.088;2022-09-09T15:56:47;5.60;;;2.10;;
69627;SDS011;56850;51.984;5.088;2022-09-09T15:59:22;6.22;;;2.30;;
69627;SDS011;56850;51.984;5.088;2022-09-09T16:01:50;5.50;;;2.03;;
69627;SDS011;56850;51.984;5.088;2022-09-09T16:04:18;4.10;;;2.22;;
69627;SDS011;56850;51.984;5.088;2022-09-09T16:06:53;5.90;;;2.17;;
69627;SDS011;56850;51.984;5.088;2022-09-09T16:09:21;3.95;;;1.80;;
69627;SDS011;56850;51.984;5.088;2022-09-09T16:11:48;5.35;;;2.40;;
69627;SDS011;56850;51.984;5.088;2022-09-09T16:14:15;6.75;;;2.92;;
69627;SDS011;56850;51.984;5.088;2022-09-09T16:16:42;4.25;;;2.40;;
69627;SDS011;56850;51.984;5.088;2022-09-09T16:19:10;5.72;;;2.55;;
69627;SDS011;56850;51.984;5.088;2022-09-09T16:21:40;5.63;;;2.47;;
69627;SDS011;56850;51.984;5.088;2022-09-09T16:24:13;6.20;;;3.03;;
69627;SDS011;56850;51.984;5.088;2022-09-09T16:26:42;6.83;;;2.70;;
69627;SDS011;56850;51.984;5.088;2022-09-09T16:29:14;4.55;;;2.40;;
69627;SDS011;56850;51.984;5.088;2022-09-09T16:31:42;5.40;;;2.05;;
69627;SDS011;56850;51.984;5.088;2022-09-09T16:34:10;6.05;;;2.35;;
69627;SDS011;56850;51.984;5.088;2022-09-09T16:36:38;5.25;;;2.20;;
69627;SDS011;56850;51.984;5.088;2022-09-09T16:39:07;9.23;;;3.30;;
69627;SDS011;56850;51.984;5.088;2022-09-09T16:41:40;7.47;;;3.40;;
69627;SDS011;56850;51.984;5.088;2022-09-09T16:44:10;6.28;;;2.53;;
69627;SDS011;56850;51.984;5.088;2022-09-09T16:46:39;4.30;;;2.58;;
69627;SDS011;56850;51.984;5.088;2022-09-09T16:49:12;6.47;;;2.38;;
69627;SDS011;56850;51.984;5.088;2022-09-09T16:51:44;4.90;;;2.70;;
69627;SDS011;56850;51.984;5.088;2022-09-09T16:54:16;4.95;;;2.85;;
69627;SDS011;56850;51.984;5.088;2022-09-09T16:56:45;4.82;;;2.55;;
69627;SDS011;56850;51.984;5.088;2022-09-09T16:59:14;4.78;;;2.22;;
69627;SDS011;56850;51.984;5.088;2022-09-09T17:01:43;7.72;;;2.25;;
69627;SDS011;56850;51.984;5.088;2022-09-09T17:04:16;5.10;;;2.33;;
69627;SDS011;56850;51.984;5.088;2022-09-09T17:06:48;5.95;;;2.70;;
69627;SDS011;56850;51.984;5.088;2022-09-09T17:09:15;6.68;;;2.60;;
69627;SDS011;56850;51.984;5.088;2022-09-09T17:11:43;5.80;;;2.70;;
69627;SDS011;56850;51.984;5.088;2022-09-09T17:14:13;6.95;;;2.42;;
69627;SDS011;56850;51.984;5.088;2022-09-09T17:16:42;3.40;;;2.20;;
69627;SDS011;56850;51.984;5.088;2022-09-09T17:19:09;6.55;;;2.15;;
69627;SDS011;56850;51.984;5.088;2022-09-09T17:21:37;4.10;;;2.40;;